createdAt,value
2018-10-01T00:01:23.614Z,100369.52
2018-10-01T00:03:51.205Z,100369.73
2018-10-01T00:06:18.726Z,100375.58
2018-10-01T00:08:46.270Z,100372.92
2018-10-01T00:11:13.821Z,100372.11
2018-10-01T00:13:41.402Z,100378.80
2018-10-01T00:16:08.806Z,100369.95
2018-10-01T00:18:36.302Z,100375.06
2018-10-01T00:21:09.442Z,100381.53
2018-10-01T00:23:37.333Z,100385.48
2018-10-01T00:26:04.820Z,100382.14
2018-10-01T00:28:32.209Z,100376.88
2018-10-01T00:31:00.005Z,100375.06
2018-10-01T00:33:27.401Z,100362.16
2018-10-01T00:35:54.782Z,100365.86
2018-10-01T00:38:22.260Z,100372.44
2018-10-01T00:40:49.791Z,100370.62
2018-10-01T00:43:17.473Z,100368.84
2018-10-01T00:45:44.889Z,100365.89
2018-10-01T00:48:12.280Z,100361.80
2018-10-01T00:50:39.710Z,100360.27
2018-10-01T00:53:07.156Z,100365.53
2018-10-01T00:55:34.570Z,100369.59
2018-10-01T00:58:01.978Z,100367.91
2018-10-01T01:00:29.592Z,100371.75
2018-10-01T01:02:57.014Z,100373.17
2018-10-01T01:05:24.410Z,100367.94
2018-10-01T01:07:52.044Z,100362.91
2018-10-01T01:10:19.458Z,100364.10
2018-10-01T01:12:46.874Z,100360.41
2018-10-01T01:15:14.356Z,100354.30
2018-10-01T01:17:41.830Z,100370.20
2018-10-01T01:20:09.291Z,100372.84
2018-10-01T01:22:36.724Z,100371.03
2018-10-01T01:25:04.348Z,100365.05
2018-10-01T01:27:31.746Z,100371.52
2018-10-01T01:29:59.194Z,100369.73
2018-10-01T01:32:26.810Z,100371.64
2018-10-01T01:34:54.198Z,100370.57
2018-10-01T01:37:21.710Z,100371.39
2018-10-01T01:39:49.118Z,100373.30
2018-10-01T01:42:16.594Z,100363.63
2018-10-01T01:44:44.034Z,100370.78
2018-10-01T01:47:11.544Z,100369.36
2018-10-01T01:49:38.928Z,100366.73
2018-10-01T01:52:06.504Z,100370.91
2018-10-01T01:54:33.924Z,100366.60
2018-10-01T01:57:01.322Z,100368.87
2018-10-01T01:59:28.886Z,100367.56
2018-10-01T02:01:56.302Z,100367.67
2018-10-01T02:04:23.816Z,100369.23
2018-10-01T02:06:51.458Z,100362.16
2018-10-01T02:09:18.850Z,100367.53
2018-10-01T02:11:46.268Z,100356.55
2018-10-01T02:14:13.786Z,100354.49
2018-10-01T02:16:41.310Z,100356.02
2018-10-01T02:19:08.970Z,100354.09
2018-10-01T02:21:36.450Z,100356.11
2018-10-01T02:24:03.898Z,100361.72
2018-10-01T02:26:31.386Z,100355.71
2018-10-01T02:28:58.799Z,100356.70
2018-10-01T02:31:26.362Z,100354.80
2018-10-01T02:33:53.774Z,100343.33
2018-10-01T02:36:21.214Z,100349.53
2018-10-01T02:38:48.677Z,100345.55
2018-10-01T02:41:16.088Z,100346.61
2018-10-01T02:43:43.565Z,100349.37
2018-10-01T02:46:11.053Z,100346.04
2018-10-01T02:48:38.602Z,100343.31
2018-10-01T02:51:06.392Z,100346.66
2018-10-01T02:54:38.274Z,100348.69
2018-10-01T02:57:05.784Z,100344.74
2018-10-01T02:59:33.717Z,100352.98
2018-10-01T03:02:01.143Z,100356.22
2018-10-01T03:04:28.569Z,100359.35
2018-10-01T03:06:56.101Z,100352.21
2018-10-01T03:09:23.621Z,100352.46
2018-10-01T03:11:51.112Z,100352.57
2018-10-01T03:14:18.495Z,100348.77
2018-10-01T03:16:45.939Z,100341.95
2018-10-01T03:19:13.383Z,100345.28
2018-10-01T03:21:40.961Z,100349.44
2018-10-01T03:24:08.439Z,100348.27
2018-10-01T03:26:35.930Z,100353.39
2018-10-01T03:29:03.347Z,100355.31
2018-10-01T03:31:30.751Z,100350.69
2018-10-01T03:33:58.243Z,100352.70
2018-10-01T03:36:26.445Z,100346.73
2018-10-01T03:38:54.414Z,100351.89
2018-10-01T03:41:21.905Z,100364.22
2018-10-01T03:43:49.299Z,100356.55
2018-10-01T03:46:17.023Z,100366.82
2018-10-01T03:48:44.683Z,100366.47
2018-10-01T03:51:12.141Z,100364.58
2018-10-01T03:53:39.741Z,100361.80
2018-10-01T03:56:07.450Z,100360.98
2018-10-01T03:58:34.871Z,100358.70
2018-10-01T04:01:05.525Z,100364.58
2018-10-01T04:03:32.992Z,100364.44
2018-10-01T04:06:00.386Z,100357.16
2018-10-01T04:08:27.762Z,100359.31
2018-10-01T04:10:55.206Z,100368.49
2018-10-01T04:13:22.609Z,100366.72
2018-10-01T04:15:50.014Z,100374.36
2018-10-01T04:18:17.539Z,100378.08
2018-10-01T04:20:44.976Z,100380.59
2018-10-01T04:23:12.344Z,100375.45
2018-10-01T04:25:39.825Z,100382.73
2018-10-01T04:28:07.383Z,100385.27
2018-10-01T04:30:34.909Z,100392.55
2018-10-01T04:33:02.362Z,100398.98
2018-10-01T04:35:29.931Z,100396.00
2018-10-01T04:37:57.309Z,100390.28
2018-10-01T04:40:24.790Z,100395.05
2018-10-01T04:42:52.179Z,100399.37
2018-10-01T04:45:19.611Z,100394.97
2018-10-01T04:47:47.075Z,100399.73
2018-10-01T04:50:14.511Z,100406.34
2018-10-01T04:52:42.001Z,100404.19
2018-10-01T04:55:09.639Z,100405.28
2018-10-01T04:57:37.069Z,100401.21
2018-10-01T05:00:05.673Z,100409.50
2018-10-01T05:02:33.119Z,100418.33
2018-10-01T05:05:00.489Z,100419.30
2018-10-01T05:07:28.002Z,100419.13
2018-10-01T05:09:55.409Z,100427.27
2018-10-01T05:12:22.841Z,100432.56
2018-10-01T05:14:50.333Z,100434.61
2018-10-01T05:17:18.189Z,100437.23
2018-10-01T05:19:45.633Z,100436.17
2018-10-01T05:22:13.249Z,100445.73
2018-10-01T05:24:40.864Z,100451.24
2018-10-01T05:27:08.355Z,100457.84
2018-10-01T05:29:35.799Z,100455.32
2018-10-01T05:32:03.319Z,100457.81
2018-10-01T05:34:30.707Z,100457.57
2018-10-01T05:36:58.257Z,100454.12
2018-10-01T05:39:25.679Z,100455.53
2018-10-01T05:41:53.171Z,100458.28
2018-10-01T05:44:20.601Z,100454.83
2018-10-01T05:46:48.017Z,100456.84
2018-10-01T05:49:15.449Z,100457.80
2018-10-01T05:51:42.939Z,100470.84
2018-10-01T05:54:10.399Z,100470.09
2018-10-01T05:56:37.823Z,100476.46
2018-10-01T05:59:05.469Z,100477.89
2018-10-01T06:01:33.045Z,100483.38
2018-10-01T06:04:00.447Z,100491.23
2018-10-01T06:06:27.881Z,100486.81
2018-10-01T06:08:55.406Z,100488.46
2018-10-01T06:11:23.575Z,100496.31
2018-10-01T06:13:50.960Z,100499.74
2018-10-01T06:16:18.438Z,100498.16
2018-10-01T06:18:45.801Z,100504.63
2018-10-01T06:21:13.215Z,100505.88
2018-10-01T06:23:40.661Z,100503.55
2018-10-01T06:26:08.157Z,100502.52
2018-10-01T06:28:35.594Z,100506.16
2018-10-01T06:31:03.047Z,100506.52
2018-10-01T06:33:30.406Z,100510.30
2018-10-01T06:35:57.810Z,100512.93
2018-10-01T06:38:25.260Z,100522.39
2018-10-01T06:40:52.700Z,100517.61
2018-10-01T06:43:20.203Z,100525.31
2018-10-01T06:45:47.674Z,100522.18
2018-10-01T06:48:15.146Z,100529.50
2018-10-01T06:50:42.628Z,100522.69
2018-10-01T06:53:10.110Z,100530.72
2018-10-01T06:55:37.546Z,100529.19
2018-10-01T06:58:05.086Z,100537.27
2018-10-01T07:00:32.574Z,100538.50
2018-10-01T07:02:59.978Z,100539.95
2018-10-01T07:05:27.443Z,100540.84
2018-10-01T07:07:55.010Z,100542.17
2018-10-01T07:10:22.489Z,100545.94
2018-10-01T07:12:49.880Z,100545.20
2018-10-01T07:15:17.298Z,100549.86
2018-10-01T07:17:44.697Z,100552.09
2018-10-01T07:20:12.125Z,100555.59
2018-10-01T07:22:39.801Z,100561.42
2018-10-01T07:27:41.684Z,100573.18
2018-10-01T07:30:09.106Z,100577.84
2018-10-01T07:32:39.575Z,100580.44
2018-10-01T07:35:07.135Z,100579.20
2018-10-01T07:37:34.565Z,100580.80
2018-10-01T07:40:01.997Z,100585.66
2018-10-01T07:42:29.578Z,100594.73
2018-10-01T07:44:57.120Z,100595.44
2018-10-01T07:47:24.633Z,100596.45
2018-10-01T07:49:52.121Z,100593.70
2018-10-01T07:52:19.541Z,100598.67
2018-10-01T07:54:46.957Z,100599.63
2018-10-01T07:57:14.504Z,100602.64
2018-10-01T07:59:42.105Z,100605.06
2018-10-01T08:02:09.495Z,100608.50
2018-10-01T08:04:37.019Z,100608.36
2018-10-01T08:07:04.454Z,100621.77
2018-10-01T08:09:32.052Z,100623.02
2018-10-01T08:11:59.461Z,100636.34
2018-10-01T08:14:26.861Z,100642.20
2018-10-01T08:16:54.257Z,100636.88
2018-10-01T08:19:21.715Z,100635.98
2018-10-01T08:21:49.182Z,100643.64
2018-10-01T08:24:16.745Z,100647.49
2018-10-01T08:26:44.278Z,100646.16
2018-10-01T08:29:11.776Z,100655.66
2018-10-01T08:31:39.170Z,100653.23
2018-10-01T08:34:06.637Z,100648.84
2018-10-01T08:36:34.159Z,100646.69
2018-10-01T08:39:01.728Z,100654.61
2018-10-01T08:41:29.323Z,100654.33
2018-10-01T08:43:56.714Z,100659.38
2018-10-01T08:46:24.119Z,100662.31
2018-10-01T08:48:55.521Z,100664.63
2018-10-01T08:51:28.541Z,100658.66
2018-10-01T08:54:34.294Z,100648.89
2018-10-01T08:57:01.845Z,100656.14
2018-10-01T08:59:29.433Z,100652.90
2018-10-01T09:01:58.141Z,100654.28
2018-10-01T09:04:25.622Z,100653.59
2018-10-01T09:06:53.226Z,100648.28
2018-10-01T09:09:20.518Z,100661.83
2018-10-01T09:11:47.997Z,100658.08
2018-10-01T09:14:15.435Z,100669.25
2018-10-01T09:16:42.974Z,100674.56
2018-10-01T09:19:10.392Z,100674.55
2018-10-01T09:21:37.937Z,100678.64
2018-10-01T09:24:05.434Z,100679.77
2018-10-01T09:26:32.912Z,100682.31
2018-10-01T09:29:00.321Z,100689.38
2018-10-01T09:31:27.832Z,100690.78
2018-10-01T09:33:55.282Z,100694.05
2018-10-01T09:36:22.923Z,100691.16
2018-10-01T09:38:50.404Z,100701.33
2018-10-01T09:41:18.118Z,100695.39
2018-10-01T09:43:45.568Z,100698.27
2018-10-01T09:46:13.162Z,100699.61
2018-10-01T09:48:40.565Z,100700.61
2018-10-01T09:51:07.996Z,100698.56
2018-10-01T09:53:35.553Z,100695.22
2018-10-01T09:56:03.093Z,100695.59
2018-10-01T09:58:30.549Z,100692.92
2018-10-01T10:01:03.786Z,100704.21
2018-10-01T10:03:31.235Z,100699.48
2018-10-01T10:05:58.690Z,100698.45
2018-10-01T10:08:26.171Z,100701.03
2018-10-01T10:10:53.623Z,100700.59
2018-10-01T10:13:21.105Z,100711.28
2018-10-01T10:15:48.850Z,100708.69
2018-10-01T10:18:16.451Z,100708.58
2018-10-01T10:20:43.856Z,100715.13
2018-10-01T10:23:11.351Z,100709.95
2018-10-01T10:25:38.802Z,100709.44
2018-10-01T10:28:06.352Z,100717.69
2018-10-01T10:30:33.957Z,100709.30
2018-10-01T10:33:01.567Z,100714.15
2018-10-01T10:35:29.298Z,100715.88
2018-10-01T10:37:56.731Z,100721.08
2018-10-01T10:40:24.127Z,100710.77
2018-10-01T10:42:51.560Z,100719.78
2018-10-01T10:45:19.097Z,100718.08
2018-10-01T10:47:46.573Z,100723.50
2018-10-01T10:50:14.194Z,100711.98
2018-10-01T10:52:41.994Z,100723.41
2018-10-01T10:55:09.426Z,100721.05
2018-10-01T10:57:36.955Z,100720.45
2018-10-01T11:00:04.595Z,100724.14
2018-10-01T11:02:32.215Z,100721.28
2018-10-01T11:04:59.575Z,100718.11
2018-10-01T11:07:27.166Z,100717.88
2018-10-01T11:09:54.602Z,100715.92
2018-10-01T11:12:22.110Z,100713.17
2018-10-01T11:14:49.566Z,100714.08
2018-10-01T11:17:17.142Z,100711.37
2018-10-01T11:19:44.608Z,100699.44
2018-10-01T11:22:13.497Z,100696.00
2018-10-01T11:24:41.188Z,100691.12
2018-10-01T11:27:08.730Z,100694.05
2018-10-01T11:29:36.548Z,100699.02
2018-10-01T11:32:04.048Z,100699.06
2018-10-01T11:34:31.583Z,100709.58
2018-10-01T11:36:59.367Z,100709.72
2018-10-01T11:39:26.897Z,100708.02
2018-10-01T11:41:54.344Z,100716.19
2018-10-01T11:44:21.794Z,100701.07
2018-10-01T11:46:49.196Z,100704.78
2018-10-01T11:49:16.658Z,100697.75
2018-10-01T11:51:44.287Z,100693.03
2018-10-01T11:54:11.688Z,100702.50
2018-10-01T11:56:39.229Z,100698.87
2018-10-01T11:59:06.715Z,100702.41
2018-10-01T12:01:34.208Z,100701.68
2018-10-01T12:04:01.706Z,100706.72
2018-10-01T12:06:29.076Z,100694.44
2018-10-01T12:08:56.672Z,100696.47
2018-10-01T12:11:24.123Z,100692.88
2018-10-01T12:13:51.661Z,100694.90
2018-10-01T12:16:19.136Z,100694.76
2018-10-01T12:18:46.654Z,100697.11
2018-10-01T12:21:14.285Z,100694.59
2018-10-01T12:23:41.843Z,100688.55
2018-10-01T12:26:09.328Z,100700.53
2018-10-01T12:28:36.856Z,100689.52
2018-10-01T12:31:04.348Z,100694.83
2018-10-01T12:33:31.838Z,100691.01
2018-10-01T12:35:59.229Z,100690.36
2018-10-01T12:38:26.666Z,100686.87
2018-10-01T12:40:56.873Z,100686.38
2018-10-01T12:43:24.667Z,100696.33
2018-10-01T12:45:52.170Z,100694.52
2018-10-01T12:48:19.825Z,100695.02
2018-10-01T12:50:47.239Z,100693.45
2018-10-01T12:53:14.830Z,100694.33
2018-10-01T12:55:42.374Z,100695.51
2018-10-01T12:58:09.879Z,100688.75
2018-10-01T13:00:37.423Z,100691.56
2018-10-01T13:03:04.987Z,100697.22
2018-10-01T13:05:32.531Z,100704.73
2018-10-01T13:08:01.129Z,100704.77
2018-10-01T13:10:28.767Z,100701.40
2018-10-01T13:12:56.669Z,100696.08
2018-10-01T13:15:24.321Z,100705.54
2018-10-01T13:17:51.752Z,100706.82
2018-10-01T13:20:19.363Z,100702.83
2018-10-01T13:22:46.848Z,100706.06
2018-10-01T13:25:14.366Z,100711.30
2018-10-01T13:27:41.943Z,100699.72
2018-10-01T13:30:09.615Z,100701.63
2018-10-01T13:32:37.062Z,100709.92
2018-10-01T13:35:04.583Z,100695.02
2018-10-01T13:37:32.070Z,100727.31
2018-10-01T13:39:59.574Z,100727.56
2018-10-01T13:42:27.107Z,100722.56
2018-10-01T13:44:54.562Z,100719.89
2018-10-01T13:47:22.153Z,100710.13
2018-10-01T13:49:49.708Z,100707.06
2018-10-01T13:52:17.481Z,100708.71
2018-10-01T13:54:44.935Z,100699.20
2018-10-01T13:57:12.556Z,100702.55
2018-10-01T13:59:40.062Z,100700.22
2018-10-01T14:02:07.580Z,100707.19
2018-10-01T14:04:35.003Z,100697.63
2018-10-01T14:07:02.517Z,100708.17
2018-10-01T14:09:30.065Z,100707.23
2018-10-01T14:11:57.660Z,100708.14
2018-10-01T14:14:25.077Z,100739.16
2018-10-01T14:16:52.524Z,100757.66
2018-10-01T14:19:20.106Z,100761.08
2018-10-01T14:21:47.574Z,100766.72
2018-10-01T14:24:15.158Z,100773.86
2018-10-01T14:26:42.650Z,100781.97
2018-10-01T14:29:10.246Z,100788.93
2018-10-01T14:31:37.713Z,100790.05
2018-10-01T14:34:05.222Z,100803.67
2018-10-01T14:36:32.788Z,100814.11
2018-10-01T14:39:00.198Z,100823.16
2018-10-01T14:41:27.693Z,100827.45
2018-10-01T14:43:55.126Z,100833.77
2018-10-01T14:46:22.642Z,100828.87
2018-10-01T14:48:50.112Z,100832.37
2018-10-01T14:51:17.656Z,100831.19
2018-10-01T14:53:45.043Z,100827.02
2018-10-01T14:56:12.706Z,100842.70
2018-10-01T14:58:40.163Z,100838.27
2018-10-01T15:01:07.614Z,100840.91
2018-10-01T15:03:35.621Z,100849.06
2018-10-01T15:06:03.091Z,100842.36
2018-10-01T15:08:30.656Z,100845.34
2018-10-01T15:10:58.329Z,100850.99
2018-10-01T15:13:25.900Z,100856.66
2018-10-01T15:15:53.320Z,100849.24
2018-10-01T15:18:20.962Z,100856.58
2018-10-01T15:20:48.314Z,100852.64
2018-10-01T15:23:15.744Z,100855.03
2018-10-01T15:25:43.202Z,100856.22
2018-10-01T15:28:10.724Z,100858.39
2018-10-01T15:30:38.255Z,100852.75
2018-10-01T15:33:06.082Z,100857.31
2018-10-01T15:35:33.574Z,100858.38
2018-10-01T15:38:01.014Z,100862.08
2018-10-01T15:40:28.625Z,100858.71
2018-10-01T15:42:56.470Z,100865.18
2018-10-01T15:45:24.230Z,100864.40
2018-10-01T15:47:51.654Z,100864.48
2018-10-01T15:50:19.104Z,100859.51
2018-10-01T15:52:46.556Z,100868.96
2018-10-01T15:55:14.190Z,100862.42
2018-10-01T15:57:41.618Z,100862.03
2018-10-01T16:00:09.162Z,100866.00
2018-10-01T16:02:36.778Z,100868.38
2018-10-01T16:05:06.260Z,100883.47
2018-10-01T16:07:35.034Z,100888.02
2018-10-01T16:10:02.622Z,100883.12
2018-10-01T16:12:30.072Z,100885.65
2018-10-01T16:17:56.643Z,100913.34
2018-10-01T16:20:24.114Z,100912.55
2018-10-01T16:22:51.701Z,100922.86
2018-10-01T16:25:19.186Z,100918.45
2018-10-01T16:27:46.604Z,100921.33
2018-10-01T16:30:14.049Z,100926.03
2018-10-01T16:32:41.548Z,100913.30
2018-10-01T16:35:09.453Z,100914.16
2018-10-01T16:37:36.930Z,100915.02
2018-10-01T16:40:04.557Z,100921.53
2018-10-01T16:42:32.035Z,100933.44
2018-10-01T16:44:59.523Z,100935.98
2018-10-01T16:47:27.004Z,100943.95
2018-10-01T16:49:54.450Z,100946.58
2018-10-01T16:52:22.023Z,100945.73
2018-10-01T16:54:49.654Z,100951.49
2018-10-01T16:57:17.260Z,100946.59
2018-10-01T16:59:44.754Z,100949.59
2018-10-01T17:02:12.510Z,100952.56
2018-10-01T17:04:40.142Z,100961.31
2018-10-01T17:07:07.654Z,100969.55
2018-10-01T17:09:35.166Z,100972.95
2018-10-01T17:12:02.555Z,100976.31
2018-10-01T17:14:30.128Z,100987.48
2018-10-01T17:16:57.664Z,100987.89
2018-10-01T17:19:25.200Z,100996.58
2018-10-01T17:21:52.676Z,101007.98
2018-10-01T17:24:20.180Z,101013.78
2018-10-01T17:26:47.655Z,101022.41
2018-10-01T17:29:15.188Z,101019.74
2018-10-01T17:31:42.726Z,101018.95
2018-10-01T17:34:10.182Z,101022.27
2018-10-01T17:36:37.791Z,101039.35
2018-10-01T17:39:07.958Z,101041.28
2018-10-01T17:41:35.643Z,101052.04
2018-10-01T17:44:03.354Z,101051.63
2018-10-01T17:46:30.955Z,101053.23
2018-10-01T17:48:58.428Z,101072.91
2018-10-01T17:51:25.947Z,101062.78
2018-10-01T17:53:53.495Z,101073.12
2018-10-01T17:56:20.987Z,101081.22
2018-10-01T17:58:48.426Z,101082.71
2018-10-01T18:01:16.317Z,101075.95
2018-10-01T18:03:43.797Z,101079.61
2018-10-01T18:06:11.937Z,101093.59
2018-10-01T18:08:39.467Z,101084.36
2018-10-01T18:11:07.017Z,101093.18
2018-10-01T18:13:34.638Z,101091.21
2018-10-01T18:16:02.139Z,101097.94
2018-10-01T18:18:29.571Z,101096.28
2018-10-01T18:20:57.060Z,101094.82
2018-10-01T18:23:24.570Z,101106.88
2018-10-01T18:25:52.026Z,101111.42
2018-10-01T18:28:19.502Z,101107.47
2018-10-01T18:30:47.154Z,101106.73
2018-10-01T18:33:14.594Z,101108.25
2018-10-01T18:35:42.233Z,101107.84
2018-10-01T18:38:09.798Z,101107.57
2018-10-01T18:40:37.298Z,101112.55
2018-10-01T18:43:04.782Z,101104.63
2018-10-01T18:45:32.342Z,101115.13
2018-10-01T18:47:59.779Z,101113.65
2018-10-01T18:50:27.405Z,101115.80
2018-10-01T18:52:54.846Z,101114.94
2018-10-01T18:55:22.804Z,101117.47
2018-10-01T18:57:50.710Z,101111.66
2018-10-01T19:00:18.280Z,101104.98
2018-10-01T19:02:45.848Z,101113.25
2018-10-01T19:05:13.390Z,101115.34
2018-10-01T19:07:41.828Z,101114.30
2018-10-01T19:10:09.997Z,101113.52
2018-10-01T19:12:37.543Z,101114.37
2018-10-01T19:15:07.543Z,101120.24
2018-10-01T19:17:35.037Z,101127.20
2018-10-01T19:20:02.719Z,101129.30
2018-10-01T19:22:30.294Z,101129.85
2018-10-01T19:24:57.812Z,101132.30
2018-10-01T19:27:25.480Z,101144.14
2018-10-01T19:29:53.504Z,101151.46
2018-10-01T19:32:21.101Z,101157.31
2018-10-01T19:34:48.583Z,101156.91
2018-10-01T19:37:16.105Z,101160.59
2018-10-01T19:39:43.687Z,101162.76
2018-10-01T19:42:11.139Z,101153.66
2018-10-01T19:44:38.607Z,101148.03
2018-10-01T19:47:06.416Z,101152.87
2018-10-01T19:49:33.878Z,101153.54
2018-10-01T19:52:01.811Z,101153.17
2018-10-01T19:54:29.231Z,101158.06
2018-10-01T19:56:56.703Z,101154.46
2018-10-01T19:59:24.250Z,101165.42
2018-10-01T20:01:51.763Z,101169.37
2018-10-01T20:04:19.291Z,101169.89
2018-10-01T20:06:46.795Z,101180.50
2018-10-01T20:09:14.344Z,101172.24
2018-10-01T20:11:42.043Z,101185.32
2018-10-01T20:14:09.513Z,101176.70
2018-10-01T20:16:37.044Z,101185.41
2018-10-01T20:19:04.757Z,101186.91
2018-10-01T20:21:32.359Z,101187.20
2018-10-01T20:24:00.133Z,101190.95
2018-10-01T20:26:27.650Z,101184.12
2018-10-01T20:28:55.657Z,101193.83
2018-10-01T20:31:22.835Z,101180.42
2018-10-01T20:33:50.366Z,101187.11
2018-10-01T20:36:17.996Z,101186.93
2018-10-01T20:38:45.450Z,101176.97
2018-10-01T20:41:13.131Z,101178.89
2018-10-01T20:43:40.614Z,101185.05
2018-10-01T20:46:08.221Z,101190.75
2018-10-01T20:48:35.672Z,101188.05
2018-10-01T20:51:03.195Z,101191.00
2018-10-01T20:53:30.718Z,101185.99
2018-10-01T20:55:58.161Z,101192.16
2018-10-01T20:58:25.659Z,101206.72
2018-10-01T21:00:53.144Z,101207.13
2018-10-01T21:03:20.615Z,101210.28
2018-10-01T21:05:48.923Z,101212.43
2018-10-01T21:08:16.348Z,101212.83
2018-10-01T21:10:44.117Z,101212.27
2018-10-01T21:13:11.583Z,101219.02
2018-10-01T21:15:39.182Z,101219.69
2018-10-01T21:18:06.795Z,101213.85
2018-10-01T21:20:34.361Z,101212.67
2018-10-01T21:23:01.778Z,101213.48
2018-10-01T21:25:29.242Z,101219.30
2018-10-01T21:27:56.998Z,101220.69
2018-10-01T21:30:24.453Z,101217.77
2018-10-01T21:32:51.845Z,101218.22
2018-10-01T21:35:19.335Z,101218.30
2018-10-01T21:37:46.806Z,101222.83
2018-10-01T21:40:15.824Z,101222.20
2018-10-01T21:42:43.540Z,101223.55
2018-10-01T21:45:12.179Z,101232.86
2018-10-01T21:47:39.663Z,101232.95
2018-10-01T21:50:07.765Z,101226.95
2018-10-01T21:52:35.483Z,101229.47
2018-10-01T21:55:03.035Z,101230.36
2018-10-01T21:57:30.613Z,101227.06
2018-10-01T21:59:58.179Z,101230.70
2018-10-01T22:02:25.603Z,101230.78
2018-10-01T22:04:53.232Z,101228.30
2018-10-01T22:07:20.874Z,101230.18
2018-10-01T22:09:48.915Z,101234.61
2018-10-01T22:12:16.385Z,101230.69
2018-10-01T22:14:44.047Z,101232.86
2018-10-01T22:17:11.581Z,101234.03
2018-10-01T22:19:39.237Z,101233.48
2018-10-01T22:22:07.008Z,101235.34
2018-10-01T22:24:34.691Z,101231.48
2018-10-01T22:27:02.479Z,101236.34
2018-10-01T22:29:29.902Z,101241.50
2018-10-01T22:31:57.335Z,101235.50
2018-10-01T22:34:24.827Z,101239.28
2018-10-01T22:36:52.472Z,101238.80
2018-10-01T22:39:19.882Z,101235.05
2018-10-01T22:41:47.387Z,101227.33
2018-10-01T22:44:14.955Z,101226.43
2018-10-01T22:46:42.379Z,101224.10
2018-10-01T22:49:09.821Z,101226.55
2018-10-01T22:51:37.329Z,101229.20
2018-10-01T22:54:04.892Z,101226.78
2018-10-01T22:56:32.695Z,101226.03
2018-10-01T22:59:00.221Z,101231.89
2018-10-01T23:01:28.070Z,101236.95
2018-10-01T23:03:55.493Z,101234.95
2018-10-01T23:06:23.392Z,101233.50
2018-10-01T23:08:50.888Z,101234.28
2018-10-01T23:11:18.340Z,101234.57
2018-10-01T23:13:45.784Z,101241.51
2018-10-01T23:16:13.256Z,101244.03
2018-10-01T23:18:40.794Z,101240.09
2018-10-01T23:21:08.216Z,101241.80
2018-10-01T23:23:35.658Z,101252.27
2018-10-01T23:26:03.132Z,101250.70
2018-10-01T23:28:30.563Z,101255.57
2018-10-01T23:30:57.956Z,101253.06
2018-10-01T23:33:25.364Z,101262.39
2018-10-01T23:35:52.890Z,101258.14
2018-10-01T23:38:20.299Z,101253.14
2018-10-01T23:40:48.734Z,101253.28
2018-10-01T23:43:16.146Z,101256.76
2018-10-01T23:45:43.568Z,101258.62
2018-10-01T23:48:11.040Z,101259.66
2018-10-01T23:50:38.510Z,101262.00
2018-10-01T23:53:05.974Z,101256.38
2018-10-01T23:55:33.568Z,101259.66
2018-10-01T23:58:01.060Z,101255.98
